createdAt,value
2023-04-15T00:01:00.055Z,7.37
2023-04-15T00:02:00.118Z,7.36
2023-04-15T00:02:59.969Z,7.37
2023-04-15T00:03:59.909Z,7.37
2023-04-15T00:04:59.845Z,7.39
2023-04-15T00:05:59.841Z,7.36
2023-04-15T00:06:59.817Z,7.36
2023-04-15T00:07:59.828Z,7.32
2023-04-15T00:09:00.102Z,7.30
2023-04-15T00:09:59.800Z,7.27
2023-04-15T00:10:59.770Z,7.27
2023-04-15T00:11:59.769Z,7.23
2023-04-15T00:12:59.754Z,7.18
2023-04-15T00:13:59.766Z,7.18
2023-04-15T00:14:59.728Z,7.15
2023-04-15T00:15:59.722Z,7.12
2023-04-15T00:16:59.776Z,7.12
2023-04-15T00:17:59.757Z,7.12
2023-04-15T00:18:59.931Z,7.12
2023-04-15T00:19:59.671Z,7.09
2023-04-15T00:20:59.670Z,7.09
2023-04-15T00:21:59.665Z,7.09
2023-04-15T00:22:59.643Z,7.08
2023-04-15T00:23:59.655Z,7.05
2023-04-15T00:24:59.620Z,7.04
2023-04-15T00:25:59.617Z,7.01
2023-04-15T00:26:59.597Z,6.96
2023-04-15T00:27:59.590Z,6.96
2023-04-15T00:28:59.813Z,6.94
2023-04-15T00:29:59.577Z,6.93
2023-04-15T00:30:59.618Z,6.91
2023-04-15T00:31:59.548Z,6.90
2023-04-15T00:32:59.647Z,6.90
2023-04-15T00:33:59.553Z,6.87
2023-04-15T00:34:59.508Z,6.83
2023-04-15T00:35:59.517Z,6.81
2023-04-15T00:36:59.488Z,6.79
2023-04-15T00:37:59.488Z,6.78
2023-04-15T00:38:59.643Z,6.75
2023-04-15T00:39:59.461Z,6.75
2023-04-15T00:40:59.457Z,6.72
2023-04-15T00:41:59.450Z,6.71
2023-04-15T00:42:59.420Z,6.68
2023-04-15T00:43:59.444Z,6.68
2023-04-15T00:44:59.400Z,6.64
2023-04-15T00:45:59.461Z,6.61
2023-04-15T00:46:59.383Z,6.63
2023-04-15T00:47:59.411Z,6.60
2023-04-15T00:48:59.588Z,6.58
2023-04-15T00:49:59.358Z,6.60
2023-04-15T00:50:59.342Z,6.64
2023-04-15T00:51:59.331Z,6.64
2023-04-15T00:52:59.317Z,6.68
2023-04-15T00:53:59.330Z,6.68
2023-04-15T00:54:59.292Z,6.69
2023-04-15T00:55:59.279Z,6.69
2023-04-15T00:56:59.270Z,6.69
2023-04-15T00:57:59.298Z,6.69
2023-04-15T00:58:59.584Z,6.61
2023-04-15T00:59:59.237Z,6.58
2023-04-15T01:00:59.236Z,6.57
2023-04-15T01:01:59.328Z,6.58
2023-04-15T01:02:59.343Z,6.57
2023-04-15T01:03:59.303Z,6.57
2023-04-15T01:04:59.185Z,6.55
2023-04-15T01:06:00.301Z,6.55
2023-04-15T01:06:59.162Z,6.53
2023-04-15T01:07:59.153Z,6.55
2023-04-15T01:08:59.422Z,6.58
2023-04-15T01:09:59.139Z,6.60
2023-04-15T01:10:59.112Z,6.60
2023-04-15T01:11:59.107Z,6.61
2023-04-15T01:12:59.082Z,6.58
2023-04-15T01:13:59.111Z,6.55
2023-04-15T01:14:59.070Z,6.55
2023-04-15T01:15:59.137Z,6.53
2023-04-15T01:16:59.049Z,6.51
2023-04-15T01:17:59.050Z,6.53
2023-04-15T01:18:59.325Z,6.53
2023-04-15T01:19:59.041Z,6.54
2023-04-15T01:20:59.002Z,6.58
2023-04-15T01:21:58.996Z,6.61
2023-04-15T01:22:58.977Z,6.58
2023-04-15T01:23:59.000Z,6.58
2023-04-15T01:24:58.955Z,6.57
2023-04-15T01:25:58.947Z,6.58
2023-04-15T01:26:58.932Z,6.63
2023-04-15T01:27:58.924Z,6.60
2023-04-15T01:28:59.164Z,6.64
2023-04-15T01:29:58.903Z,6.65
2023-04-15T01:30:58.891Z,6.71
2023-04-15T01:31:58.897Z,6.71
2023-04-15T01:32:58.928Z,6.72
2023-04-15T01:33:58.893Z,6.73
2023-04-15T01:34:58.847Z,6.73
2023-04-15T01:35:58.840Z,6.75
2023-04-15T01:36:58.839Z,6.76
2023-04-15T01:37:58.819Z,6.75
2023-04-15T01:38:59.071Z,6.72
2023-04-15T01:39:58.791Z,6.73
2023-04-15T01:40:58.777Z,6.72
2023-04-15T01:41:58.778Z,6.71
2023-04-15T01:42:58.755Z,6.65
2023-04-15T01:43:58.772Z,6.61
2023-04-15T01:44:58.734Z,6.58
2023-04-15T01:45:58.729Z,6.57
2023-04-15T01:46:58.763Z,6.58
2023-04-15T01:47:58.784Z,6.58
2023-04-15T01:48:58.880Z,6.60
2023-04-15T01:49:58.681Z,6.58
2023-04-15T01:50:58.671Z,6.58
2023-04-15T01:51:58.669Z,6.58
2023-04-15T01:52:58.686Z,6.57
2023-04-15T01:53:58.660Z,6.55
2023-04-15T01:54:58.633Z,6.51
2023-04-15T01:55:58.624Z,6.50
2023-04-15T01:56:58.602Z,6.51
2023-04-15T01:57:58.595Z,6.51
2023-04-15T01:58:58.886Z,6.54
2023-04-15T01:59:58.582Z,6.54
2023-04-15T02:00:58.588Z,6.54
2023-04-15T02:01:58.687Z,6.54
2023-04-15T02:02:58.607Z,6.57
2023-04-15T02:03:58.592Z,6.61
2023-04-15T02:04:58.517Z,6.60
2023-04-15T02:05:58.517Z,6.58
2023-04-15T02:06:58.491Z,6.57
2023-04-15T02:07:58.501Z,6.55
2023-04-15T02:08:58.635Z,6.51
2023-04-15T02:09:58.464Z,6.48
2023-04-15T02:10:58.448Z,6.43
2023-04-15T02:11:58.437Z,6.42
2023-04-15T02:12:58.430Z,6.39
2023-04-15T02:13:58.438Z,6.39
2023-04-15T02:14:58.411Z,6.42
2023-04-15T02:15:58.392Z,6.45
2023-04-15T02:16:58.458Z,6.48
2023-04-15T02:17:58.421Z,6.50
2023-04-15T02:18:58.464Z,6.51
2023-04-15T02:19:58.357Z,6.54
2023-04-15T02:20:58.373Z,6.53
2023-04-15T02:21:58.329Z,6.50
2023-04-15T02:22:58.318Z,6.53
2023-04-15T02:23:58.329Z,6.53
2023-04-15T02:24:58.296Z,6.48
2023-04-15T02:25:58.287Z,6.46
2023-04-15T02:26:58.283Z,6.48
2023-04-15T02:27:58.275Z,6.50
2023-04-15T02:28:58.356Z,6.48
2023-04-15T02:29:58.238Z,6.46
2023-04-15T02:30:58.235Z,6.50
2023-04-15T02:31:58.248Z,6.46
2023-04-15T02:32:58.245Z,6.46
2023-04-15T02:33:58.222Z,6.46
2023-04-15T02:34:58.206Z,6.46
2023-04-15T02:35:58.176Z,6.46
2023-04-15T02:36:58.164Z,6.43
2023-04-15T02:37:58.155Z,6.43
2023-04-15T02:38:58.165Z,6.40
2023-04-15T02:39:58.129Z,6.42
2023-04-15T02:40:58.122Z,6.40
2023-04-15T02:41:58.111Z,6.43
2023-04-15T02:42:58.100Z,6.40
2023-04-15T02:43:58.105Z,6.39
2023-04-15T02:44:58.077Z,6.40
2023-04-15T02:45:58.109Z,6.38
2023-04-15T02:46:58.060Z,6.39
2023-04-15T02:47:58.086Z,6.39
2023-04-15T02:48:58.143Z,6.39
2023-04-15T02:49:58.019Z,6.39
2023-04-15T02:50:58.008Z,6.36
2023-04-15T02:51:58.024Z,6.36
2023-04-15T02:52:57.992Z,6.33
2023-04-15T02:53:57.988Z,6.32
2023-04-15T02:54:57.967Z,6.32
2023-04-15T02:55:57.948Z,6.32
2023-04-15T02:56:57.950Z,6.32
2023-04-15T02:57:57.927Z,6.33
2023-04-15T02:58:57.942Z,6.36
2023-04-15T02:59:57.912Z,6.35
2023-04-15T03:00:57.924Z,6.36
2023-04-15T03:01:57.920Z,6.36
2023-04-15T03:02:57.977Z,6.35
2023-04-15T03:03:57.929Z,6.33
2023-04-15T03:04:57.850Z,6.38
2023-04-15T03:05:57.842Z,6.35
2023-04-15T03:06:57.828Z,6.38
2023-04-15T03:07:57.806Z,6.36
2023-04-15T03:08:57.828Z,6.33
2023-04-15T03:09:57.800Z,6.33
2023-04-15T03:10:57.781Z,6.32
2023-04-15T03:11:57.766Z,6.30
2023-04-15T03:12:57.766Z,6.32
2023-04-15T03:13:57.761Z,6.28
2023-04-15T03:14:57.739Z,6.28
2023-04-15T03:15:57.795Z,6.25
2023-04-15T03:16:57.716Z,6.24
2023-04-15T03:17:57.708Z,6.20
2023-04-15T03:18:57.729Z,6.24
2023-04-15T03:19:57.713Z,6.21
2023-04-15T03:20:57.671Z,6.21
2023-04-15T03:21:57.660Z,6.19
2023-04-15T03:22:57.641Z,6.19
2023-04-15T03:23:57.632Z,6.20
2023-04-15T03:24:57.652Z,6.20
2023-04-15T03:25:57.618Z,6.19
2023-04-15T03:26:57.605Z,6.14
2023-04-15T03:27:57.603Z,6.11
2023-04-15T03:28:57.598Z,6.13
2023-04-15T03:29:57.590Z,6.16
2023-04-15T03:30:57.594Z,6.17
2023-04-15T03:31:57.548Z,6.19
2023-04-15T03:32:57.596Z,6.20
2023-04-15T03:33:57.538Z,6.20
2023-04-15T03:34:57.533Z,6.20
2023-04-15T03:35:57.503Z,6.19
2023-04-15T03:36:57.493Z,6.19
2023-04-15T03:37:57.473Z,6.19
2023-04-15T03:38:57.475Z,6.20
2023-04-15T03:39:57.485Z,6.19
2023-04-15T03:40:57.451Z,6.19
2023-04-15T03:41:57.431Z,6.16
2023-04-15T03:42:57.441Z,6.13
2023-04-15T03:43:57.410Z,6.11
2023-04-15T03:44:57.431Z,6.11
2023-04-15T03:45:57.392Z,6.11
2023-04-15T03:46:57.384Z,6.11
2023-04-15T03:48:03.618Z,6.11
2023-04-15T03:48:57.369Z,6.10
2023-04-15T03:49:57.385Z,6.06
2023-04-15T03:50:57.334Z,6.06
2023-04-15T03:51:57.325Z,6.08
2023-04-15T03:52:57.314Z,6.05
2023-04-15T03:53:57.308Z,6.06
2023-04-15T03:54:57.320Z,6.06
2023-04-15T03:55:57.276Z,6.06
2023-04-15T03:56:57.270Z,6.05
2023-04-15T03:57:57.255Z,6.01
2023-04-15T03:58:57.251Z,5.96
2023-04-15T03:59:57.248Z,5.90
2023-04-15T04:00:57.242Z,5.88
2023-04-15T04:01:57.243Z,5.87
2023-04-15T04:02:57.397Z,5.85
2023-04-15T04:03:57.330Z,5.83
2023-04-15T04:04:57.206Z,5.78
2023-04-15T04:05:57.160Z,5.75
2023-04-15T04:06:57.169Z,5.73
2023-04-15T04:07:57.143Z,5.70
2023-04-15T04:08:57.146Z,5.67
2023-04-15T04:09:57.141Z,5.66
2023-04-15T04:10:57.138Z,5.62
2023-04-15T04:11:57.098Z,5.58
2023-04-15T04:12:57.095Z,5.51
2023-04-15T04:13:57.077Z,5.47
2023-04-15T04:14:57.089Z,5.47
2023-04-15T04:15:57.069Z,5.44
2023-04-15T04:16:57.102Z,5.38
2023-04-15T04:17:57.079Z,5.38
2023-04-15T04:18:57.029Z,5.35
2023-04-15T04:19:57.027Z,5.30
2023-04-15T04:20:56.997Z,5.29
2023-04-15T04:21:57.001Z,5.26
2023-04-15T04:22:56.979Z,5.24
2023-04-15T04:23:56.965Z,5.20
2023-04-15T04:24:56.980Z,5.19
2023-04-15T04:25:56.943Z,5.15
2023-04-15T04:26:56.940Z,5.14
2023-04-15T04:27:56.924Z,5.09
2023-04-15T04:28:56.915Z,5.08
2023-04-15T04:29:56.917Z,5.06
2023-04-15T04:30:56.906Z,5.09
2023-04-15T04:31:56.906Z,5.09
2023-04-15T04:32:56.919Z,5.09
2023-04-15T04:33:56.848Z,5.08
2023-04-15T04:34:56.861Z,5.05
2023-04-15T04:35:56.824Z,5.08
2023-04-15T04:36:56.822Z,5.08
2023-04-15T04:37:56.820Z,5.08
2023-04-15T04:38:56.807Z,5.06
2023-04-15T04:39:56.802Z,5.05
2023-04-15T04:40:56.776Z,5.04
2023-04-15T04:41:56.757Z,5.05
2023-04-15T04:42:56.752Z,5.05
2023-04-15T04:43:56.741Z,5.05
2023-04-15T04:44:56.759Z,5.05
2023-04-15T04:45:56.734Z,5.02
2023-04-15T04:46:56.720Z,5.04
2023-04-15T04:47:56.722Z,5.02
2023-04-15T04:48:56.702Z,5.02
2023-04-15T04:49:56.692Z,5.04
2023-04-15T04:50:56.660Z,5.04
2023-04-15T04:51:56.657Z,5.02
2023-04-15T04:52:56.637Z,5.04
2023-04-15T04:53:56.633Z,5.04
2023-04-15T04:54:56.644Z,5.04
2023-04-15T04:55:56.610Z,5.05
2023-04-15T04:56:56.608Z,5.08
2023-04-15T04:57:56.595Z,5.06
2023-04-15T04:58:56.589Z,5.09
2023-04-15T04:59:56.580Z,5.09
2023-04-15T05:00:56.584Z,5.12
2023-04-15T05:01:56.596Z,5.15
2023-04-15T05:02:56.640Z,5.19
2023-04-15T05:03:56.666Z,5.20
2023-04-15T05:04:56.541Z,5.26
2023-04-15T05:05:56.492Z,5.30
2023-04-15T05:06:56.491Z,5.33
2023-04-15T05:07:56.470Z,5.40
2023-04-15T05:08:56.476Z,5.44
2023-04-15T05:09:56.477Z,5.48
2023-04-15T05:10:56.448Z,5.52
2023-04-15T05:11:56.438Z,5.60
2023-04-15T05:12:56.411Z,5.63
2023-04-15T05:13:56.420Z,5.65
2023-04-15T05:14:56.424Z,5.69
2023-04-15T05:15:56.477Z,5.69
2023-04-15T05:16:56.394Z,5.73
2023-04-15T05:17:56.452Z,5.70
2023-04-15T05:18:56.349Z,5.77
2023-04-15T05:19:56.369Z,5.78
2023-04-15T05:20:56.343Z,5.81
2023-04-15T05:21:56.323Z,5.83
2023-04-15T05:22:56.311Z,5.84
2023-04-15T05:23:56.304Z,5.84
2023-04-15T05:24:56.310Z,5.87
2023-04-15T05:25:56.280Z,5.85
2023-04-15T05:26:56.290Z,5.88
2023-04-15T05:27:56.253Z,5.90
2023-04-15T05:28:56.240Z,5.93
2023-04-15T05:29:56.256Z,5.95
2023-04-15T05:30:56.247Z,5.96
2023-04-15T05:31:56.224Z,5.98
2023-04-15T05:32:56.224Z,5.99
2023-04-15T05:33:56.193Z,6.03
2023-04-15T05:34:56.199Z,6.06
2023-04-15T05:35:56.173Z,6.10
2023-04-15T05:36:56.157Z,6.13
2023-04-15T05:37:56.153Z,6.14
2023-04-15T05:38:56.130Z,6.13
2023-04-15T05:39:56.152Z,6.14
2023-04-15T05:40:56.114Z,6.16
2023-04-15T05:41:56.101Z,6.16
2023-04-15T05:42:56.099Z,6.20
2023-04-15T05:43:56.079Z,6.20
2023-04-15T05:44:56.098Z,6.25
2023-04-15T05:45:56.075Z,6.32
2023-04-15T05:46:56.041Z,6.33
2023-04-15T05:47:56.079Z,6.35
2023-04-15T05:48:56.611Z,6.36
2023-04-15T05:49:56.038Z,6.40
2023-04-15T05:50:55.992Z,6.45
2023-04-15T05:51:55.987Z,6.45
2023-04-15T05:52:55.983Z,6.48
2023-04-15T05:53:55.962Z,6.50
2023-04-15T05:54:55.987Z,6.54
2023-04-15T05:55:55.960Z,6.53
2023-04-15T05:56:55.933Z,6.55
2023-04-15T05:57:55.954Z,6.54
2023-04-15T05:58:55.907Z,6.57
2023-04-15T05:59:55.919Z,6.60
2023-04-15T06:00:55.880Z,6.58
2023-04-15T06:01:55.888Z,6.57
2023-04-15T06:02:55.891Z,6.58
2023-04-15T06:03:56.014Z,6.61
2023-04-15T06:04:55.952Z,6.61
2023-04-15T06:05:55.842Z,6.63
2023-04-15T06:06:55.816Z,6.63
2023-04-15T06:07:55.819Z,6.61
2023-04-15T06:08:55.789Z,6.61
2023-04-15T06:09:55.820Z,6.63
2023-04-15T06:10:55.772Z,6.61
2023-04-15T06:11:55.764Z,6.55
2023-04-15T06:12:55.749Z,6.55
2023-04-15T06:13:55.747Z,6.53
2023-04-15T06:14:55.748Z,6.55
2023-04-15T06:15:55.756Z,6.57
2023-04-15T06:16:58.283Z,6.60
2023-04-15T06:17:55.744Z,6.61
2023-04-15T06:18:55.684Z,6.57
2023-04-15T06:19:55.737Z,6.61
2023-04-15T06:20:55.685Z,6.65
2023-04-15T06:21:55.657Z,6.69
2023-04-15T06:22:55.654Z,6.75
2023-04-15T06:23:55.632Z,6.72
2023-04-15T06:24:55.655Z,6.72
2023-04-15T06:25:55.612Z,6.73
2023-04-15T06:26:55.596Z,6.79
2023-04-15T06:27:55.600Z,6.83
2023-04-15T06:28:55.569Z,6.87
2023-04-15T06:29:55.586Z,6.89
2023-04-15T06:30:55.549Z,6.89
2023-04-15T06:31:55.572Z,6.93
2023-04-15T06:32:55.552Z,6.94
2023-04-15T06:33:55.524Z,6.96
2023-04-15T06:34:55.521Z,7.04
2023-04-15T06:35:55.495Z,7.07
2023-04-15T06:36:55.484Z,7.08
2023-04-15T06:37:55.479Z,7.11
2023-04-15T06:38:55.461Z,7.16
2023-04-15T06:39:55.477Z,7.21
2023-04-15T06:40:55.432Z,7.26
2023-04-15T06:41:55.433Z,7.29
2023-04-15T06:42:55.423Z,7.29
2023-04-15T06:43:55.402Z,7.30
2023-04-15T06:44:55.407Z,7.32
2023-04-15T06:45:55.463Z,7.33
2023-04-15T06:46:55.371Z,7.34
2023-04-15T06:47:55.405Z,7.36
2023-04-15T06:48:55.343Z,7.41
2023-04-15T06:49:55.367Z,7.44
2023-04-15T06:50:55.321Z,7.44
2023-04-15T06:51:55.312Z,7.47
2023-04-15T06:52:55.297Z,7.48
2023-04-15T06:53:55.292Z,7.50
2023-04-15T06:54:55.298Z,7.45
2023-04-15T06:55:55.269Z,7.44
2023-04-15T06:56:55.270Z,7.50
2023-04-15T06:57:55.255Z,7.50
2023-04-15T06:58:55.244Z,7.48
2023-04-15T06:59:55.255Z,7.52
2023-04-15T07:00:55.257Z,7.57
2023-04-15T07:01:55.228Z,7.58
2023-04-15T07:02:55.241Z,7.58
2023-04-15T07:03:55.219Z,7.63
2023-04-15T07:04:55.190Z,7.67
2023-04-15T07:05:55.163Z,7.66
2023-04-15T07:06:55.144Z,7.71
2023-04-15T07:07:55.162Z,7.74
2023-04-15T07:08:55.124Z,7.74
2023-04-15T07:09:55.135Z,7.76
2023-04-15T07:10:55.107Z,7.82
2023-04-15T07:11:55.102Z,7.86
2023-04-15T07:12:55.093Z,7.88
2023-04-15T07:13:55.069Z,7.94
2023-04-15T07:14:55.104Z,7.92
2023-04-15T07:15:55.048Z,7.89
2023-04-15T07:16:55.070Z,7.85
2023-04-15T07:17:55.036Z,7.91
2023-04-15T07:18:55.013Z,7.94
2023-04-15T07:19:55.025Z,8.00
2023-04-15T07:20:54.993Z,8.04
2023-04-15T07:21:54.982Z,8.09
2023-04-15T07:22:54.966Z,8.10
2023-04-15T07:23:54.969Z,8.12
2023-04-15T07:24:54.972Z,8.12
2023-04-15T07:25:54.993Z,8.17
2023-04-15T07:26:54.922Z,8.24
2023-04-15T07:27:54.917Z,8.29
2023-04-15T07:28:54.901Z,8.34
2023-04-15T07:29:54.915Z,8.39
2023-04-15T07:30:55.013Z,8.42
2023-04-15T07:31:54.876Z,8.52
2023-04-15T07:32:54.884Z,8.58
2023-04-15T07:33:54.858Z,8.64
2023-04-15T07:34:54.851Z,8.68
2023-04-15T07:35:54.828Z,8.67
2023-04-15T07:36:54.816Z,8.70
2023-04-15T07:37:54.829Z,8.71
2023-04-15T07:38:54.792Z,8.78
2023-04-15T07:39:54.811Z,8.85
2023-04-15T07:40:54.770Z,8.88
2023-04-15T07:41:54.766Z,8.86
2023-04-15T07:42:54.756Z,8.88
2023-04-15T07:43:54.739Z,8.88
2023-04-15T07:44:54.747Z,8.88
2023-04-15T07:45:54.743Z,8.93
2023-04-15T07:46:54.715Z,9.01
2023-04-15T07:47:54.766Z,9.15
2023-04-15T07:48:54.695Z,9.19
2023-04-15T07:49:54.698Z,9.17
2023-04-15T07:50:54.655Z,9.19
2023-04-15T07:51:54.667Z,9.20
2023-04-15T07:52:54.631Z,9.20
2023-04-15T07:53:54.656Z,9.16
2023-04-15T07:54:54.650Z,9.19
2023-04-15T07:55:54.625Z,9.15
2023-04-15T07:56:54.601Z,9.06
2023-04-15T07:57:54.608Z,9.08
2023-04-15T07:58:54.583Z,8.96
2023-04-15T07:59:54.590Z,8.97
2023-04-15T08:00:54.612Z,8.98
2023-04-15T08:01:54.647Z,8.98
2023-04-15T08:02:54.825Z,8.94
2023-04-15T08:03:54.730Z,8.94
2023-04-15T08:04:54.589Z,8.98
2023-04-15T08:05:54.494Z,9.01
2023-04-15T08:06:54.478Z,9.04
2023-04-15T08:07:54.480Z,9.06
2023-04-15T08:08:54.577Z,9.10
2023-04-15T08:09:54.488Z,9.16
2023-04-15T08:10:54.444Z,9.23
2023-04-15T08:11:54.511Z,9.27
2023-04-15T08:12:54.424Z,9.35
2023-04-15T08:13:54.409Z,9.35
2023-04-15T08:14:54.420Z,9.37
2023-04-15T08:15:54.424Z,9.37
2023-04-15T08:16:54.371Z,9.30
2023-04-15T08:17:54.405Z,9.24
2023-04-15T08:18:54.342Z,9.20
2023-04-15T08:19:54.356Z,9.20
2023-04-15T08:20:54.324Z,9.16
2023-04-15T08:21:54.316Z,9.13
2023-04-15T08:22:54.333Z,9.10
2023-04-15T08:23:54.295Z,9.01
2023-04-15T08:24:54.292Z,8.96
2023-04-15T08:25:54.272Z,8.98
2023-04-15T08:26:54.258Z,9.01
2023-04-15T08:27:54.248Z,9.06
2023-04-15T08:28:54.239Z,9.10
2023-04-15T08:29:54.241Z,9.12
2023-04-15T08:30:54.206Z,9.15
2023-04-15T08:31:54.259Z,9.17
2023-04-15T08:32:54.308Z,9.23
2023-04-15T08:33:54.177Z,9.27
2023-04-15T08:34:54.187Z,9.32
2023-04-15T08:35:54.160Z,9.30
2023-04-15T08:36:54.140Z,9.27
2023-04-15T08:37:54.139Z,9.24
2023-04-15T08:38:54.146Z,9.20
2023-04-15T08:39:54.131Z,9.22
2023-04-15T08:40:54.090Z,9.23
2023-04-15T08:41:54.090Z,9.27
2023-04-15T08:42:54.076Z,9.37
2023-04-15T08:43:54.075Z,9.42
2023-04-15T08:44:54.095Z,9.44
2023-04-15T08:45:54.050Z,9.45
2023-04-15T08:46:54.037Z,9.50
2023-04-15T08:47:54.053Z,9.53
2023-04-15T08:48:54.007Z,9.53
2023-04-15T08:49:53.999Z,9.53
2023-04-15T08:50:54.026Z,9.55
2023-04-15T08:51:53.981Z,9.55
2023-04-15T08:52:53.963Z,9.49
2023-04-15T08:53:53.969Z,9.55
2023-04-15T08:54:53.940Z,9.60
2023-04-15T08:55:53.963Z,9.63
2023-04-15T08:56:53.970Z,9.68
2023-04-15T08:57:53.912Z,9.73
2023-04-15T08:58:53.893Z,9.81
2023-04-15T08:59:53.888Z,9.81
2023-04-15T09:00:53.920Z,9.86
2023-04-15T09:01:53.885Z,9.91
2023-04-15T09:02:53.894Z,9.80
2023-04-15T09:03:53.877Z,9.71
2023-04-15T09:04:53.835Z,9.74
2023-04-15T09:05:53.855Z,9.80
2023-04-15T09:06:53.815Z,9.85
2023-04-15T09:07:53.872Z,9.83
2023-04-15T09:08:53.824Z,9.75
2023-04-15T09:09:53.778Z,9.68
2023-04-15T09:10:53.799Z,9.70
2023-04-15T09:11:53.759Z,9.70
2023-04-15T09:12:53.732Z,9.70
2023-04-15T09:13:53.738Z,9.74
2023-04-15T09:14:53.720Z,9.78
2023-04-15T09:15:53.736Z,9.77
2023-04-15T09:16:53.716Z,9.83
2023-04-15T09:17:53.716Z,9.88
2023-04-15T09:18:53.716Z,9.91
2023-04-15T09:19:53.670Z,9.93
2023-04-15T09:20:53.671Z,9.89
2023-04-15T09:21:54.230Z,9.88
2023-04-15T09:22:53.633Z,9.89
2023-04-15T09:23:53.638Z,9.91
2023-04-15T09:24:53.624Z,9.96
2023-04-15T09:25:53.621Z,9.96
2023-04-15T09:26:53.590Z,9.98
2023-04-15T09:27:53.573Z,10.01
2023-04-15T09:28:53.561Z,9.99
2023-04-15T09:29:53.550Z,9.95
2023-04-15T09:30:53.575Z,9.99
2023-04-15T09:31:53.523Z,10.06
2023-04-15T09:32:53.538Z,10.07
2023-04-15T09:33:53.504Z,10.04
2023-04-15T09:34:53.497Z,9.95
2023-04-15T09:35:53.507Z,10.04
2023-04-15T09:36:53.481Z,10.04
2023-04-15T09:37:53.458Z,10.02
2023-04-15T09:38:53.549Z,10.01
2023-04-15T09:39:53.436Z,9.98
2023-04-15T09:40:53.478Z,10.04
2023-04-15T09:41:53.413Z,9.99
2023-04-15T09:42:53.401Z,9.91
2023-04-15T09:43:53.388Z,9.77
2023-04-15T09:44:53.395Z,9.75
2023-04-15T09:45:53.416Z,9.80
2023-04-15T09:46:53.384Z,9.83
2023-04-15T09:47:53.372Z,9.80
2023-04-15T09:48:53.345Z,9.85
2023-04-15T09:49:53.353Z,9.92
2023-04-15T09:50:53.389Z,9.92
2023-04-15T09:52:04.604Z,9.96
2023-04-15T09:52:53.300Z,9.99
2023-04-15T09:53:53.282Z,10.09
2023-04-15T09:54:53.278Z,10.14
2023-04-15T09:55:53.277Z,10.26
2023-04-15T09:56:53.265Z,10.29
2023-04-15T09:57:53.229Z,10.17
2023-04-15T09:58:53.235Z,10.16
2023-04-15T09:59:53.235Z,10.14
2023-04-15T10:00:53.230Z,10.16
2023-04-15T10:01:53.244Z,10.11
2023-04-15T10:02:53.406Z,10.16
2023-04-15T10:03:53.313Z,10.25
2023-04-15T10:04:53.173Z,10.32
2023-04-15T10:05:53.216Z,10.34
2023-04-15T10:06:53.141Z,10.34
2023-04-15T10:07:53.125Z,10.35
2023-04-15T10:08:53.121Z,10.38
2023-04-15T10:09:53.122Z,10.43
2023-04-15T10:10:53.126Z,10.60
2023-04-15T10:11:53.083Z,10.60
2023-04-15T10:12:53.071Z,10.65
2023-04-15T10:13:53.067Z,10.63
2023-04-15T10:14:53.081Z,10.60
2023-04-15T10:15:53.112Z,10.49
2023-04-15T10:16:53.033Z,10.57
2023-04-15T10:17:53.038Z,10.63
2023-04-15T10:18:53.007Z,10.70
2023-04-15T10:19:53.007Z,10.73
2023-04-15T10:20:53.002Z,10.72
2023-04-15T10:21:52.973Z,10.66
2023-04-15T10:22:52.968Z,10.75
2023-04-15T10:23:52.954Z,10.73
2023-04-15T10:24:52.952Z,10.76
2023-04-15T10:25:53.037Z,10.78
2023-04-15T10:26:52.925Z,10.81
2023-04-15T10:27:52.902Z,10.72
2023-04-15T10:28:52.894Z,10.54
2023-04-15T10:29:52.884Z,10.49
2023-04-15T10:30:52.938Z,10.58
2023-04-15T10:31:52.886Z,10.57
2023-04-15T10:32:52.865Z,10.65
2023-04-15T10:33:52.833Z,10.65
2023-04-15T10:34:54.470Z,10.73
2023-04-15T10:35:52.841Z,10.76
2023-04-15T10:36:52.806Z,10.80
2023-04-15T10:37:52.793Z,10.80
2023-04-15T10:38:52.820Z,10.73
2023-04-15T10:39:52.805Z,10.83
2023-04-15T10:40:52.779Z,10.90
2023-04-15T10:41:52.746Z,10.81
2023-04-15T10:42:52.740Z,10.83
2023-04-15T10:43:52.759Z,10.83
2023-04-15T10:44:52.722Z,10.84
2023-04-15T10:45:52.726Z,10.87
2023-04-15T10:46:52.762Z,10.78
2023-04-15T10:47:52.721Z,10.88
2023-04-15T10:48:52.678Z,10.95
2023-04-15T10:49:52.679Z,10.95
2023-04-15T10:50:52.670Z,10.95
2023-04-15T10:51:52.635Z,10.93
2023-04-15T10:52:52.641Z,11.01
2023-04-15T10:53:52.623Z,10.95
2023-04-15T10:54:52.607Z,10.94
2023-04-15T10:55:52.609Z,10.99
2023-04-15T10:56:52.596Z,11.02
2023-04-15T10:57:52.571Z,11.01
2023-04-15T10:58:52.602Z,11.08
2023-04-15T10:59:52.543Z,11.09
2023-04-15T11:00:52.561Z,11.17
2023-04-15T11:01:52.768Z,11.23
2023-04-15T11:02:52.673Z,11.26
2023-04-15T11:03:52.734Z,11.27
2023-04-15T11:04:52.565Z,11.27
2023-04-15T11:05:52.515Z,11.27
2023-04-15T11:06:52.477Z,11.28
2023-04-15T11:07:52.460Z,11.38
2023-04-15T11:08:52.452Z,11.33
2023-04-15T11:09:52.433Z,11.41
2023-04-15T11:10:52.449Z,11.45
2023-04-15T11:11:52.412Z,11.57
2023-04-15T11:12:52.407Z,11.49
2023-04-15T11:13:52.420Z,11.49
2023-04-15T11:14:52.389Z,11.35
2023-04-15T11:15:52.411Z,11.42
2023-04-15T11:16:52.423Z,11.48
2023-04-15T11:17:52.467Z,11.57
2023-04-15T11:18:52.334Z,11.60
2023-04-15T11:19:52.313Z,11.39
2023-04-15T11:20:52.356Z,11.42
2023-04-15T11:21:52.296Z,11.41
2023-04-15T11:22:52.305Z,11.28
2023-04-15T11:23:52.277Z,11.28
2023-04-15T11:24:52.277Z,11.30
2023-04-15T11:25:52.270Z,11.23
2023-04-15T11:26:52.249Z,11.17
2023-04-15T11:27:52.228Z,11.20
2023-04-15T11:28:52.223Z,11.19
2023-04-15T11:29:52.213Z,11.23
2023-04-15T11:30:52.225Z,11.28
2023-04-15T11:31:52.242Z,11.30
2023-04-15T11:32:52.234Z,11.33
2023-04-15T11:33:52.162Z,11.33
2023-04-15T11:34:52.150Z,11.31
2023-04-15T11:35:52.165Z,11.30
2023-04-15T11:36:52.139Z,11.30
2023-04-15T11:37:52.123Z,11.30
2023-04-15T11:38:52.126Z,11.31
2023-04-15T11:39:52.097Z,11.30
2023-04-15T11:40:52.126Z,11.23
2023-04-15T11:41:52.084Z,11.11
2023-04-15T11:42:52.070Z,10.98
2023-04-15T11:43:52.098Z,11.06
2023-04-15T11:44:52.080Z,11.27
2023-04-15T11:45:52.065Z,11.38
2023-04-15T11:46:52.028Z,11.48
2023-04-15T11:47:52.082Z,11.53
2023-04-15T11:48:52.007Z,11.67
2023-04-15T11:49:52.008Z,11.72
2023-04-15T11:50:51.987Z,11.74
2023-04-15T11:51:51.972Z,11.62
2023-04-15T11:52:51.974Z,11.56
2023-04-15T11:53:51.989Z,11.51
2023-04-15T11:54:51.940Z,11.56
2023-04-15T11:55:51.950Z,11.30
2023-04-15T11:56:51.927Z,11.26
2023-04-15T11:57:51.896Z,11.19
2023-04-15T11:58:51.907Z,11.13
2023-04-15T11:59:51.875Z,11.09
2023-04-15T12:00:51.894Z,11.08
2023-04-15T12:01:51.873Z,11.09
2023-04-15T12:02:51.969Z,11.12
2023-04-15T12:03:51.972Z,11.20
2023-04-15T12:04:51.902Z,11.24
2023-04-15T12:05:51.808Z,11.21
2023-04-15T12:06:51.827Z,11.16
2023-04-15T12:07:51.784Z,11.24
2023-04-15T12:08:51.783Z,11.28
2023-04-15T12:09:51.763Z,11.16
2023-04-15T12:10:51.755Z,11.23
2023-04-15T12:11:51.769Z,11.16
2023-04-15T12:12:51.761Z,11.20
2023-04-15T12:13:51.724Z,11.01
2023-04-15T12:14:51.720Z,10.98
2023-04-15T12:15:51.725Z,11.03
2023-04-15T12:16:52.184Z,10.99
2023-04-15T12:17:52.343Z,10.94
2023-04-15T12:18:51.685Z,10.98
2023-04-15T12:19:51.648Z,11.01
2023-04-15T12:20:51.648Z,11.03
2023-04-15T12:21:51.648Z,11.05
2023-04-15T12:22:51.625Z,11.05
2023-04-15T12:23:51.615Z,11.09
2023-04-15T12:24:51.602Z,11.08
2023-04-15T12:25:51.587Z,11.06
2023-04-15T12:26:51.606Z,11.06
2023-04-15T12:27:51.568Z,11.05
2023-04-15T12:28:51.573Z,11.03
2023-04-15T12:29:51.545Z,11.09
2023-04-15T12:30:51.573Z,11.05
2023-04-15T12:31:51.551Z,11.11
2023-04-15T12:32:51.532Z,11.09
2023-04-15T12:33:51.495Z,11.16
2023-04-15T12:34:51.510Z,11.16
2023-04-15T12:35:51.476Z,11.16
2023-04-15T12:36:51.492Z,11.09
2023-04-15T12:37:51.452Z,10.99
2023-04-15T12:38:51.453Z,10.95
2023-04-15T12:39:51.431Z,10.98
2023-04-15T12:40:51.422Z,11.08
2023-04-15T12:41:51.662Z,11.21
2023-04-15T12:42:51.406Z,11.20
2023-04-15T12:43:51.393Z,11.21
2023-04-15T12:44:51.378Z,11.11
2023-04-15T12:45:51.361Z,11.05
2023-04-15T12:46:51.403Z,11.13
2023-04-15T12:47:51.380Z,11.12
2023-04-15T12:48:51.336Z,11.12
2023-04-15T12:49:51.319Z,11.03
2023-04-15T12:50:51.313Z,11.06
2023-04-15T12:51:51.330Z,11.08
2023-04-15T12:52:51.301Z,11.09
2023-04-15T12:53:51.282Z,11.03
2023-04-15T12:54:51.272Z,11.02
2023-04-15T12:55:51.256Z,11.05
2023-04-15T12:56:51.268Z,11.03
2023-04-15T12:57:51.234Z,11.05
2023-04-15T12:58:51.229Z,11.05
2023-04-15T12:59:51.213Z,11.06
2023-04-15T13:00:51.200Z,11.11
2023-04-15T13:01:51.307Z,11.16
2023-04-15T13:02:51.291Z,11.19
2023-04-15T13:03:51.322Z,11.16
2023-04-15T13:04:51.224Z,11.16
2023-04-15T13:05:51.149Z,11.12
2023-04-15T13:06:51.157Z,11.06
2023-04-15T13:07:51.118Z,11.01
2023-04-15T13:08:58.474Z,10.99
2023-04-15T13:09:51.102Z,10.91
2023-04-15T13:10:51.088Z,10.93
2023-04-15T13:11:51.094Z,10.94